sensor_id;sensor_type;location;lat;lon;timestamp;temperature;humidity
8820;DHT22;4446;50.876;4.736;2023-03-21T00:00:38;9.90;99.90
8820;DHT22;4446;50.876;4.736;2023-03-21T00:03:05;9.90;99.90
8820;DHT22;4446;50.876;4.736;2023-03-21T00:05:33;9.90;99.90
8820;DHT22;4446;50.876;4.736;2023-03-21T00:08:00;9.80;99.90
8820;DHT22;4446;50.876;4.736;2023-03-21T00:10:28;9.80;99.90
8820;DHT22;4446;50.876;4.736;2023-03-21T00:12:56;9.80;99.90
8820;DHT22;4446;50.876;4.736;2023-03-21T00:15:24;9.70;99.90
8820;DHT22;4446;50.876;4.736;2023-03-21T00:17:53;9.60;99.90
8820;DHT22;4446;50.876;4.736;2023-03-21T00:20:23;9.50;99.90
8820;DHT22;4446;50.876;4.736;2023-03-21T00:22:49;9.40;99.90
8820;DHT22;4446;50.876;4.736;2023-03-21T00:25:16;9.40;99.90
8820;DHT22;4446;50.876;4.736;2023-03-21T00:27:43;9.40;99.90
8820;DHT22;4446;50.876;4.736;2023-03-21T00:30:12;9.30;99.90
8820;DHT22;4446;50.876;4.736;2023-03-21T00:32:39;9.30;99.90
8820;DHT22;4446;50.876;4.736;2023-03-21T00:35:07;9.30;99.90
8820;DHT22;4446;50.876;4.736;2023-03-21T00:37:34;9.30;99.90
8820;DHT22;4446;50.876;4.736;2023-03-21T00:40:02;9.30;99.90
8820;DHT22;4446;50.876;4.736;2023-03-21T00:42:33;9.30;99.90
8820;DHT22;4446;50.876;4.736;2023-03-21T00:45:00;9.30;99.90
8820;DHT22;4446;50.876;4.736;2023-03-21T00:47:28;9.40;99.90
8820;DHT22;4446;50.876;4.736;2023-03-21T00:49:55;9.30;99.90
8820;DHT22;4446;50.876;4.736;2023-03-21T00:52:22;9.30;99.90
8820;DHT22;4446;50.876;4.736;2023-03-21T00:54:49;9.30;99.90
8820;DHT22;4446;50.876;4.736;2023-03-21T00:57:16;9.30;99.90
8820;DHT22;4446;50.876;4.736;2023-03-21T00:59:43;9.40;99.90
8820;DHT22;4446;50.876;4.736;2023-03-21T01:02:10;9.30;99.90
8820;DHT22;4446;50.876;4.736;2023-03-21T01:04:40;9.30;99.90
8820;DHT22;4446;50.876;4.736;2023-03-21T01:07:07;9.40;99.90
8820;DHT22;4446;50.876;4.736;2023-03-21T01:09:34;9.50;99.90
8820;DHT22;4446;50.876;4.736;2023-03-21T01:12:02;9.40;99.90
8820;DHT22;4446;50.876;4.736;2023-03-21T01:14:29;9.40;99.90
8820;DHT22;4446;50.876;4.736;2023-03-21T01:16:56;9.40;99.90
8820;DHT22;4446;50.876;4.736;2023-03-21T01:19:24;9.40;99.90
8820;DHT22;4446;50.876;4.736;2023-03-21T01:21:54;9.40;99.90
8820;DHT22;4446;50.876;4.736;2023-03-21T01:24:22;9.40;99.90
8820;DHT22;4446;50.876;4.736;2023-03-21T01:26:49;9.50;99.90
8820;DHT22;4446;50.876;4.736;2023-03-21T01:29:16;9.50;99.90
8820;DHT22;4446;50.876;4.736;2023-03-21T01:31:43;9.50;99.90
8820;DHT22;4446;50.876;4.736;2023-03-21T01:34:10;9.50;99.90
8820;DHT22;4446;50.876;4.736;2023-03-21T01:36:36;9.50;99.90
8820;DHT22;4446;50.876;4.736;2023-03-21T01:39:05;9.50;99.90
8820;DHT22;4446;50.876;4.736;2023-03-21T01:41:35;9.50;99.90
8820;DHT22;4446;50.876;4.736;2023-03-21T01:44:03;9.70;99.90
8820;DHT22;4446;50.876;4.736;2023-03-21T01:46:36;9.60;99.90
8820;DHT22;4446;50.876;4.736;2023-03-21T01:49:08;9.60;99.90
8820;DHT22;4446;50.876;4.736;2023-03-21T01:51:39;9.70;99.90
8820;DHT22;4446;50.876;4.736;2023-03-21T01:54:11;9.70;99.90
8820;DHT22;4446;50.876;4.736;2023-03-21T01:56:42;9.70;99.90
8820;DHT22;4446;50.876;4.736;2023-03-21T01:59:14;9.60;99.90
8820;DHT22;4446;50.876;4.736;2023-03-21T02:01:42;9.60;99.90
8820;DHT22;4446;50.876;4.736;2023-03-21T02:04:11;9.60;99.90
8820;DHT22;4446;50.876;4.736;2023-03-21T02:06:43;9.60;99.90
8820;DHT22;4446;50.876;4.736;2023-03-21T02:09:17;9.60;99.90
8820;DHT22;4446;50.876;4.736;2023-03-21T02:11:45;9.60;99.90
8820;DHT22;4446;50.876;4.736;2023-03-21T02:14:14;9.60;99.90
8820;DHT22;4446;50.876;4.736;2023-03-21T02:16:48;9.60;99.90
8820;DHT22;4446;50.876;4.736;2023-03-21T02:19:50;9.70;99.90
8820;DHT22;4446;50.876;4.736;2023-03-21T02:25:56;9.70;99.90
8820;DHT22;4446;50.876;4.736;2023-03-21T02:28:30;9.70;99.90
8820;DHT22;4446;50.876;4.736;2023-03-21T02:31:29;9.70;99.90
8820;DHT22;4446;50.876;4.736;2023-03-21T02:34:28;9.80;99.90
8820;DHT22;4446;50.876;4.736;2023-03-21T02:37:03;9.70;99.90
8820;DHT22;4446;50.876;4.736;2023-03-21T02:39:40;9.80;99.90
8820;DHT22;4446;50.876;4.736;2023-03-21T02:42:15;9.80;99.90
8820;DHT22;4446;50.876;4.736;2023-03-21T02:44:46;9.90;99.90
8820;DHT22;4446;50.876;4.736;2023-03-21T02:47:19;9.90;99.90
8820;DHT22;4446;50.876;4.736;2023-03-21T02:49:51;10.00;99.90
8820;DHT22;4446;50.876;4.736;2023-03-21T02:52:23;10.00;99.90
8820;DHT22;4446;50.876;4.736;2023-03-21T02:54:52;10.00;99.90
8820;DHT22;4446;50.876;4.736;2023-03-21T02:57:20;10.00;99.90
8820;DHT22;4446;50.876;4.736;2023-03-21T02:59:48;10.10;99.90
8820;DHT22;4446;50.876;4.736;2023-03-21T03:02:19;10.10;99.90
8820;DHT22;4446;50.876;4.736;2023-03-21T03:04:48;10.10;99.90
8820;DHT22;4446;50.876;4.736;2023-03-21T03:07:27;10.10;99.90
8820;DHT22;4446;50.876;4.736;2023-03-21T03:10:04;10.10;99.90
8820;DHT22;4446;50.876;4.736;2023-03-21T03:12:40;10.10;99.90
8820;DHT22;4446;50.876;4.736;2023-03-21T03:15:16;10.10;99.90
8820;DHT22;4446;50.876;4.736;2023-03-21T03:17:50;10.10;99.90
8820;DHT22;4446;50.876;4.736;2023-03-21T03:20:25;10.10;99.90
8820;DHT22;4446;50.876;4.736;2023-03-21T03:22:59;10.20;99.90
8820;DHT22;4446;50.876;4.736;2023-03-21T03:25:32;10.20;99.90
8820;DHT22;4446;50.876;4.736;2023-03-21T03:28:03;10.30;99.90
8820;DHT22;4446;50.876;4.736;2023-03-21T03:30:31;10.20;99.90
8820;DHT22;4446;50.876;4.736;2023-03-21T03:33:00;10.20;99.90
8820;DHT22;4446;50.876;4.736;2023-03-21T03:35:29;10.20;99.90
8820;DHT22;4446;50.876;4.736;2023-03-21T03:38:00;10.20;99.90
8820;DHT22;4446;50.876;4.736;2023-03-21T03:40:29;10.10;99.90
8820;DHT22;4446;50.876;4.736;2023-03-21T03:43:00;10.10;99.90
8820;DHT22;4446;50.876;4.736;2023-03-21T03:45:31;10.10;99.90
8820;DHT22;4446;50.876;4.736;2023-03-21T03:48:04;10.10;99.90
8820;DHT22;4446;50.876;4.736;2023-03-21T03:50:37;10.10;99.90
8820;DHT22;4446;50.876;4.736;2023-03-21T03:53:14;10.10;99.90
8820;DHT22;4446;50.876;4.736;2023-03-21T03:55:42;10.10;99.90
8820;DHT22;4446;50.876;4.736;2023-03-21T03:58:09;10.20;99.90
8820;DHT22;4446;50.876;4.736;2023-03-21T04:00:37;10.30;99.90
8820;DHT22;4446;50.876;4.736;2023-03-21T04:03:05;10.30;99.90
8820;DHT22;4446;50.876;4.736;2023-03-21T04:05:34;10.30;99.90
8820;DHT22;4446;50.876;4.736;2023-03-21T04:08:01;10.30;99.90
8820;DHT22;4446;50.876;4.736;2023-03-21T04:10:30;10.30;99.90
8820;DHT22;4446;50.876;4.736;2023-03-21T04:12:56;10.30;99.90
8820;DHT22;4446;50.876;4.736;2023-03-21T04:15:23;10.40;99.90
8820;DHT22;4446;50.876;4.736;2023-03-21T04:17:50;10.40;99.90
8820;DHT22;4446;50.876;4.736;2023-03-21T04:20:18;10.40;99.90
8820;DHT22;4446;50.876;4.736;2023-03-21T04:22:45;10.40;99.90
8820;DHT22;4446;50.876;4.736;2023-03-21T04:25:13;10.50;99.90
8820;DHT22;4446;50.876;4.736;2023-03-21T04:27:41;10.50;99.90
8820;DHT22;4446;50.876;4.736;2023-03-21T04:30:11;10.50;99.90
8820;DHT22;4446;50.876;4.736;2023-03-21T04:32:39;10.50;99.90
8820;DHT22;4446;50.876;4.736;2023-03-21T04:35:07;10.40;99.90
8820;DHT22;4446;50.876;4.736;2023-03-21T04:37:35;10.30;99.90
8820;DHT22;4446;50.876;4.736;2023-03-21T04:40:04;10.30;99.90
8820;DHT22;4446;50.876;4.736;2023-03-21T04:42:32;10.40;99.90
8820;DHT22;4446;50.876;4.736;2023-03-21T04:45:01;10.40;99.90
8820;DHT22;4446;50.876;4.736;2023-03-21T04:47:28;10.30;99.90
8820;DHT22;4446;50.876;4.736;2023-03-21T04:49:55;10.30;99.90
8820;DHT22;4446;50.876;4.736;2023-03-21T04:52:22;10.30;99.90
8820;DHT22;4446;50.876;4.736;2023-03-21T04:54:49;10.30;99.90
8820;DHT22;4446;50.876;4.736;2023-03-21T04:57:16;10.30;99.90
8820;DHT22;4446;50.876;4.736;2023-03-21T04:59:43;10.30;99.90
8820;DHT22;4446;50.876;4.736;2023-03-21T05:02:12;10.30;99.90
8820;DHT22;4446;50.876;4.736;2023-03-21T05:04:40;10.40;99.90
8820;DHT22;4446;50.876;4.736;2023-03-21T05:07:07;10.30;99.90
8820;DHT22;4446;50.876;4.736;2023-03-21T05:09:34;10.40;99.90
8820;DHT22;4446;50.876;4.736;2023-03-21T05:12:00;10.40;99.90
8820;DHT22;4446;50.876;4.736;2023-03-21T05:14:27;10.30;99.90
8820;DHT22;4446;50.876;4.736;2023-03-21T05:16:54;10.40;99.90
8820;DHT22;4446;50.876;4.736;2023-03-21T05:19:25;10.40;99.90
8820;DHT22;4446;50.876;4.736;2023-03-21T05:21:59;10.30;99.90
8820;DHT22;4446;50.876;4.736;2023-03-21T05:24:29;10.30;99.90
8820;DHT22;4446;50.876;4.736;2023-03-21T05:26:57;10.40;99.90
8820;DHT22;4446;50.876;4.736;2023-03-21T05:29:27;10.40;99.90
8820;DHT22;4446;50.876;4.736;2023-03-21T05:31:54;10.40;99.90
8820;DHT22;4446;50.876;4.736;2023-03-21T05:34:23;10.40;99.90
8820;DHT22;4446;50.876;4.736;2023-03-21T05:36:50;10.40;99.90
8820;DHT22;4446;50.876;4.736;2023-03-21T05:39:18;10.40;99.90
8820;DHT22;4446;50.876;4.736;2023-03-21T05:41:45;10.40;99.90
8820;DHT22;4446;50.876;4.736;2023-03-21T05:44:12;10.40;99.90
8820;DHT22;4446;50.876;4.736;2023-03-21T05:46:40;10.30;99.90
8820;DHT22;4446;50.876;4.736;2023-03-21T05:49:09;10.30;99.90
8820;DHT22;4446;50.876;4.736;2023-03-21T05:51:37;10.30;99.90
8820;DHT22;4446;50.876;4.736;2023-03-21T05:54:04;10.30;99.90
8820;DHT22;4446;50.876;4.736;2023-03-21T05:56:32;10.30;99.90
8820;DHT22;4446;50.876;4.736;2023-03-21T05:58:59;10.30;99.90
8820;DHT22;4446;50.876;4.736;2023-03-21T06:01:26;10.20;99.90
8820;DHT22;4446;50.876;4.736;2023-03-21T06:03:52;10.20;99.90
8820;DHT22;4446;50.876;4.736;2023-03-21T06:06:20;10.20;99.90
8820;DHT22;4446;50.876;4.736;2023-03-21T06:08:48;10.20;99.90
8820;DHT22;4446;50.876;4.736;2023-03-21T06:11:21;10.20;99.90
8820;DHT22;4446;50.876;4.736;2023-03-21T06:13:50;10.30;99.90
8820;DHT22;4446;50.876;4.736;2023-03-21T06:16:17;10.30;99.90
8820;DHT22;4446;50.876;4.736;2023-03-21T06:18:44;10.30;99.90
8820;DHT22;4446;50.876;4.736;2023-03-21T06:21:11;10.30;99.90
8820;DHT22;4446;50.876;4.736;2023-03-21T06:23:38;10.30;99.90
8820;DHT22;4446;50.876;4.736;2023-03-21T06:26:08;10.30;99.90
8820;DHT22;4446;50.876;4.736;2023-03-21T06:28:35;10.30;99.90
8820;DHT22;4446;50.876;4.736;2023-03-21T06:31:02;10.30;99.90
8820;DHT22;4446;50.876;4.736;2023-03-21T06:33:29;10.30;99.90
8820;DHT22;4446;50.876;4.736;2023-03-21T06:35:57;10.30;99.90
8820;DHT22;4446;50.876;4.736;2023-03-21T06:38:25;10.30;99.90
8820;DHT22;4446;50.876;4.736;2023-03-21T06:40:52;10.20;99.90
8820;DHT22;4446;50.876;4.736;2023-03-21T06:43:21;10.30;99.90
8820;DHT22;4446;50.876;4.736;2023-03-21T06:45:49;10.30;99.90
8820;DHT22;4446;50.876;4.736;2023-03-21T06:48:16;10.30;99.90
8820;DHT22;4446;50.876;4.736;2023-03-21T06:50:42;10.30;99.90
8820;DHT22;4446;50.876;4.736;2023-03-21T06:53:09;10.30;99.90
8820;DHT22;4446;50.876;4.736;2023-03-21T06:55:36;10.20;99.90
8820;DHT22;4446;50.876;4.736;2023-03-21T06:58:03;10.10;99.90
8820;DHT22;4446;50.876;4.736;2023-03-21T07:00:32;10.10;99.90
8820;DHT22;4446;50.876;4.736;2023-03-21T07:02:59;10.00;99.90
8820;DHT22;4446;50.876;4.736;2023-03-21T07:05:26;9.90;99.90
8820;DHT22;4446;50.876;4.736;2023-03-21T07:07:53;9.80;99.90
8820;DHT22;4446;50.876;4.736;2023-03-21T07:10:20;9.80;99.90
8820;DHT22;4446;50.876;4.736;2023-03-21T07:12:47;9.80;99.90
8820;DHT22;4446;50.876;4.736;2023-03-21T07:15:14;9.80;99.90
8820;DHT22;4446;50.876;4.736;2023-03-21T07:17:42;9.90;99.90
8820;DHT22;4446;50.876;4.736;2023-03-21T07:20:10;9.90;99.90
8820;DHT22;4446;50.876;4.736;2023-03-21T07:22:38;9.90;99.90
8820;DHT22;4446;50.876;4.736;2023-03-21T07:25:06;9.90;99.90
8820;DHT22;4446;50.876;4.736;2023-03-21T07:27:33;9.80;99.90
8820;DHT22;4446;50.876;4.736;2023-03-21T07:30:01;9.80;99.90
8820;DHT22;4446;50.876;4.736;2023-03-21T07:32:31;9.80;99.90
8820;DHT22;4446;50.876;4.736;2023-03-21T07:35:00;9.80;99.90
8820;DHT22;4446;50.876;4.736;2023-03-21T07:37:26;9.80;99.90
8820;DHT22;4446;50.876;4.736;2023-03-21T07:39:54;9.80;99.90
8820;DHT22;4446;50.876;4.736;2023-03-21T07:42:21;9.80;99.90
8820;DHT22;4446;50.876;4.736;2023-03-21T07:44:48;9.80;99.90
8820;DHT22;4446;50.876;4.736;2023-03-21T07:47:15;9.90;99.90
8820;DHT22;4446;50.876;4.736;2023-03-21T07:49:42;9.90;99.90
8820;DHT22;4446;50.876;4.736;2023-03-21T07:52:10;9.90;99.90
8820;DHT22;4446;50.876;4.736;2023-03-21T07:54:37;9.90;99.90
8820;DHT22;4446;50.876;4.736;2023-03-21T07:57:04;10.00;99.90
8820;DHT22;4446;50.876;4.736;2023-03-21T07:59:31;10.10;99.90
8820;DHT22;4446;50.876;4.736;2023-03-21T08:01:58;10.20;99.90
8820;DHT22;4446;50.876;4.736;2023-03-21T08:04:25;10.30;99.90
8820;DHT22;4446;50.876;4.736;2023-03-21T08:06:52;10.40;99.90
8820;DHT22;4446;50.876;4.736;2023-03-21T08:09:20;10.40;99.90
8820;DHT22;4446;50.876;4.736;2023-03-21T08:11:47;10.50;99.90
8820;DHT22;4446;50.876;4.736;2023-03-21T08:14:14;10.60;99.90
8820;DHT22;4446;50.876;4.736;2023-03-21T08:16:41;10.70;99.90
8820;DHT22;4446;50.876;4.736;2023-03-21T08:19:08;10.80;99.90
8820;DHT22;4446;50.876;4.736;2023-03-21T08:21:35;10.80;99.90
8820;DHT22;4446;50.876;4.736;2023-03-21T08:24:04;10.80;99.90
8820;DHT22;4446;50.876;4.736;2023-03-21T08:26:33;10.80;99.90
8820;DHT22;4446;50.876;4.736;2023-03-21T08:29:00;10.80;99.90
8820;DHT22;4446;50.876;4.736;2023-03-21T08:31:26;10.90;99.90
8820;DHT22;4446;50.876;4.736;2023-03-21T08:33:54;11.00;99.90
8820;DHT22;4446;50.876;4.736;2023-03-21T08:36:21;11.00;99.90
8820;DHT22;4446;50.876;4.736;2023-03-21T08:38:48;10.90;99.90
8820;DHT22;4446;50.876;4.736;2023-03-21T08:41:19;10.80;99.90
8820;DHT22;4446;50.876;4.736;2023-03-21T08:43:48;10.80;99.90
8820;DHT22;4446;50.876;4.736;2023-03-21T08:46:15;10.80;99.90
8820;DHT22;4446;50.876;4.736;2023-03-21T08:48:42;10.90;99.90
8820;DHT22;4446;50.876;4.736;2023-03-21T08:51:09;10.90;99.90
8820;DHT22;4446;50.876;4.736;2023-03-21T08:53:36;10.90;99.90
8820;DHT22;4446;50.876;4.736;2023-03-21T08:56:04;10.90;99.90
8820;DHT22;4446;50.876;4.736;2023-03-21T08:58:31;10.80;99.90
8820;DHT22;4446;50.876;4.736;2023-03-21T09:00:59;10.90;99.90
8820;DHT22;4446;50.876;4.736;2023-03-21T09:03:26;11.00;99.90
8820;DHT22;4446;50.876;4.736;2023-03-21T09:05:54;11.00;99.90
8820;DHT22;4446;50.876;4.736;2023-03-21T09:08:23;11.00;99.90
8820;DHT22;4446;50.876;4.736;2023-03-21T09:10:52;11.10;99.90
8820;DHT22;4446;50.876;4.736;2023-03-21T09:13:19;11.20;99.90
8820;DHT22;4446;50.876;4.736;2023-03-21T09:15:46;11.20;99.90
8820;DHT22;4446;50.876;4.736;2023-03-21T09:18:15;11.20;99.90
8820;DHT22;4446;50.876;4.736;2023-03-21T09:20:43;11.30;99.90
8820;DHT22;4446;50.876;4.736;2023-03-21T09:23:12;11.30;99.90
8820;DHT22;4446;50.876;4.736;2023-03-21T09:25:39;11.50;99.90
8820;DHT22;4446;50.876;4.736;2023-03-21T09:28:07;11.60;99.90
8820;DHT22;4446;50.876;4.736;2023-03-21T09:30:35;11.50;99.90
8820;DHT22;4446;50.876;4.736;2023-03-21T09:33:04;11.60;99.90
8820;DHT22;4446;50.876;4.736;2023-03-21T09:35:39;11.80;99.90
8820;DHT22;4446;50.876;4.736;2023-03-21T09:38:05;11.90;99.90
8820;DHT22;4446;50.876;4.736;2023-03-21T09:40:56;12.00;99.90
8820;DHT22;4446;50.876;4.736;2023-03-21T09:43:35;12.00;99.90
8820;DHT22;4446;50.876;4.736;2023-03-21T09:46:09;12.20;99.90
8820;DHT22;4446;50.876;4.736;2023-03-21T09:48:47;12.30;99.90
8820;DHT22;4446;50.876;4.736;2023-03-21T09:51:18;12.30;99.90
8820;DHT22;4446;50.876;4.736;2023-03-21T09:53:47;12.20;99.90
8820;DHT22;4446;50.876;4.736;2023-03-21T09:56:15;12.30;99.90
8820;DHT22;4446;50.876;4.736;2023-03-21T09:58:43;12.30;99.90
8820;DHT22;4446;50.876;4.736;2023-03-21T10:01:14;12.30;99.90
8820;DHT22;4446;50.876;4.736;2023-03-21T10:03:55;12.30;99.90
8820;DHT22;4446;50.876;4.736;2023-03-21T10:06:26;12.30;99.90
8820;DHT22;4446;50.876;4.736;2023-03-21T10:08:57;12.30;99.90
8820;DHT22;4446;50.876;4.736;2023-03-21T10:11:28;12.40;99.90
8820;DHT22;4446;50.876;4.736;2023-03-21T10:14:01;12.70;99.90
8820;DHT22;4446;50.876;4.736;2023-03-21T10:16:31;12.80;99.90
8820;DHT22;4446;50.876;4.736;2023-03-21T10:18:59;12.90;99.90
8820;DHT22;4446;50.876;4.736;2023-03-21T10:21:29;13.00;99.90
8820;DHT22;4446;50.876;4.736;2023-03-21T10:23:58;13.10;99.90
8820;DHT22;4446;50.876;4.736;2023-03-21T10:26:27;13.20;99.90
8820;DHT22;4446;50.876;4.736;2023-03-21T10:28:57;13.20;99.90
8820;DHT22;4446;50.876;4.736;2023-03-21T10:31:27;13.40;99.90
8820;DHT22;4446;50.876;4.736;2023-03-21T10:33:57;13.60;99.90
8820;DHT22;4446;50.876;4.736;2023-03-21T10:36:30;13.60;99.90
8820;DHT22;4446;50.876;4.736;2023-03-21T10:39:02;13.70;99.90
8820;DHT22;4446;50.876;4.736;2023-03-21T10:41:29;13.80;99.90
8820;DHT22;4446;50.876;4.736;2023-03-21T10:44:06;14.00;99.90
8820;DHT22;4446;50.876;4.736;2023-03-21T10:46:33;14.00;99.90
8820;DHT22;4446;50.876;4.736;2023-03-21T10:49:00;13.90;99.90
8820;DHT22;4446;50.876;4.736;2023-03-21T10:51:31;13.90;99.90
8820;DHT22;4446;50.876;4.736;2023-03-21T10:54:03;14.00;99.90
8820;DHT22;4446;50.876;4.736;2023-03-21T10:56:35;14.20;99.90
8820;DHT22;4446;50.876;4.736;2023-03-21T10:59:04;14.30;99.90
8820;DHT22;4446;50.876;4.736;2023-03-21T11:01:36;14.40;99.90
8820;DHT22;4446;50.876;4.736;2023-03-21T11:04:08;14.40;99.90
8820;DHT22;4446;50.876;4.736;2023-03-21T11:06:38;14.70;99.90
8820;DHT22;4446;50.876;4.736;2023-03-21T11:09:07;14.80;99.90
8820;DHT22;4446;50.876;4.736;2023-03-21T11:11:38;14.80;99.90
8820;DHT22;4446;50.876;4.736;2023-03-21T11:14:07;14.80;99.90
8820;DHT22;4446;50.876;4.736;2023-03-21T11:16:39;14.90;99.90
8820;DHT22;4446;50.876;4.736;2023-03-21T11:19:14;14.80;99.90
8820;DHT22;4446;50.876;4.736;2023-03-21T11:21:43;14.70;99.90
8820;DHT22;4446;50.876;4.736;2023-03-21T11:24:13;14.80;99.90
8820;DHT22;4446;50.876;4.736;2023-03-21T11:26:42;15.00;99.90
8820;DHT22;4446;50.876;4.736;2023-03-21T11:29:20;15.10;99.90
8820;DHT22;4446;50.876;4.736;2023-03-21T11:31:49;15.40;99.90
8820;DHT22;4446;50.876;4.736;2023-03-21T11:34:24;15.40;99.90
8820;DHT22;4446;50.876;4.736;2023-03-21T11:36:58;15.50;99.90
8820;DHT22;4446;50.876;4.736;2023-03-21T11:39:34;15.70;99.90
8820;DHT22;4446;50.876;4.736;2023-03-21T11:42:05;15.50;99.90
8820;DHT22;4446;50.876;4.736;2023-03-21T11:44:34;15.30;99.90
8820;DHT22;4446;50.876;4.736;2023-03-21T11:47:08;15.10;99.90
8820;DHT22;4446;50.876;4.736;2023-03-21T11:49:35;15.30;99.90
8820;DHT22;4446;50.876;4.736;2023-03-21T11:52:13;15.30;99.90
8820;DHT22;4446;50.876;4.736;2023-03-21T11:54:57;15.40;99.90
8820;DHT22;4446;50.876;4.736;2023-03-21T11:57:35;15.40;99.90
8820;DHT22;4446;50.876;4.736;2023-03-21T12:00:13;15.40;99.90
8820;DHT22;4446;50.876;4.736;2023-03-21T12:03:07;15.40;99.90
8820;DHT22;4446;50.876;4.736;2023-03-21T12:05:42;15.50;99.90
8820;DHT22;4446;50.876;4.736;2023-03-21T12:08:25;15.60;99.90
8820;DHT22;4446;50.876;4.736;2023-03-21T12:11:04;15.60;99.90
8820;DHT22;4446;50.876;4.736;2023-03-21T12:13:44;15.40;99.90
8820;DHT22;4446;50.876;4.736;2023-03-21T12:16:39;15.40;99.90
8820;DHT22;4446;50.876;4.736;2023-03-21T12:19:16;15.40;99.90
8820;DHT22;4446;50.876;4.736;2023-03-21T12:21:53;15.50;99.90
8820;DHT22;4446;50.876;4.736;2023-03-21T12:24:27;15.60;99.90
8820;DHT22;4446;50.876;4.736;2023-03-21T12:27:00;15.70;99.90
8820;DHT22;4446;50.876;4.736;2023-03-21T12:29:52;15.80;99.90
8820;DHT22;4446;50.876;4.736;2023-03-21T12:32:32;16.10;99.90
8820;DHT22;4446;50.876;4.736;2023-03-21T12:35:26;16.30;99.90
8820;DHT22;4446;50.876;4.736;2023-03-21T12:38:05;16.40;99.90
8820;DHT22;4446;50.876;4.736;2023-03-21T12:40:54;16.40;99.90
8820;DHT22;4446;50.876;4.736;2023-03-21T12:43:34;16.50;99.90
8820;DHT22;4446;50.876;4.736;2023-03-21T12:46:07;16.40;99.90
8820;DHT22;4446;50.876;4.736;2023-03-21T12:48:41;16.20;99.90
8820;DHT22;4446;50.876;4.736;2023-03-21T12:51:11;16.20;99.90
8820;DHT22;4446;50.876;4.736;2023-03-21T12:53:47;16.30;99.90
8820;DHT22;4446;50.876;4.736;2023-03-21T12:56:21;16.60;99.90
8820;DHT22;4446;50.876;4.736;2023-03-21T12:58:53;16.90;99.90
8820;DHT22;4446;50.876;4.736;2023-03-21T13:01:21;17.20;99.90
8820;DHT22;4446;50.876;4.736;2023-03-21T13:03:58;17.30;99.90
8820;DHT22;4446;50.876;4.736;2023-03-21T13:06:29;17.40;99.90
8820;DHT22;4446;50.876;4.736;2023-03-21T13:09:00;17.30;99.90
8820;DHT22;4446;50.876;4.736;2023-03-21T13:11:31;17.20;99.90
8820;DHT22;4446;50.876;4.736;2023-03-21T13:14:02;17.20;99.90
8820;DHT22;4446;50.876;4.736;2023-03-21T13:16:33;17.10;99.90
8820;DHT22;4446;50.876;4.736;2023-03-21T13:19:10;16.80;99.90
8820;DHT22;4446;50.876;4.736;2023-03-21T13:21:45;16.90;99.90
8820;DHT22;4446;50.876;4.736;2023-03-21T13:24:23;16.90;99.90
8820;DHT22;4446;50.876;4.736;2023-03-21T13:26:57;16.80;99.90
8820;DHT22;4446;50.876;4.736;2023-03-21T13:29:28;16.80;99.90
8820;DHT22;4446;50.876;4.736;2023-03-21T13:32:08;16.90;99.90
8820;DHT22;4446;50.876;4.736;2023-03-21T13:34:37;16.90;99.90
8820;DHT22;4446;50.876;4.736;2023-03-21T13:37:05;16.90;99.90
8820;DHT22;4446;50.876;4.736;2023-03-21T13:39:42;17.10;99.90
8820;DHT22;4446;50.876;4.736;2023-03-21T13:42:19;17.10;99.90
8820;DHT22;4446;50.876;4.736;2023-03-21T13:44:48;17.30;99.90
8820;DHT22;4446;50.876;4.736;2023-03-21T13:47:38;17.50;99.90
8820;DHT22;4446;50.876;4.736;2023-03-21T13:50:27;17.60;99.90
8820;DHT22;4446;50.876;4.736;2023-03-21T13:53:15;17.70;99.90
8820;DHT22;4446;50.876;4.736;2023-03-21T13:55:45;17.70;99.90
8820;DHT22;4446;50.876;4.736;2023-03-21T13:58:31;17.60;99.90
8820;DHT22;4446;50.876;4.736;2023-03-21T14:01:23;17.60;99.90
8820;DHT22;4446;50.876;4.736;2023-03-21T14:03:57;17.70;99.90
8820;DHT22;4446;50.876;4.736;2023-03-21T14:06:32;17.80;99.90
8820;DHT22;4446;50.876;4.736;2023-03-21T14:09:00;17.60;99.90
8820;DHT22;4446;50.876;4.736;2023-03-21T14:11:28;17.60;99.90
8820;DHT22;4446;50.876;4.736;2023-03-21T14:13:59;17.30;99.90
8820;DHT22;4446;50.876;4.736;2023-03-21T14:16:29;17.30;99.90
8820;DHT22;4446;50.876;4.736;2023-03-21T14:19:00;17.20;99.90
8820;DHT22;4446;50.876;4.736;2023-03-21T14:21:31;17.30;99.90
8820;DHT22;4446;50.876;4.736;2023-03-21T14:23:59;17.30;99.90
8820;DHT22;4446;50.876;4.736;2023-03-21T14:26:29;17.20;99.90
8820;DHT22;4446;50.876;4.736;2023-03-21T14:28:59;17.20;99.90
8820;DHT22;4446;50.876;4.736;2023-03-21T14:31:27;17.30;99.90
8820;DHT22;4446;50.876;4.736;2023-03-21T14:33:56;17.60;99.90
8820;DHT22;4446;50.876;4.736;2023-03-21T14:36:25;18.00;99.90
8820;DHT22;4446;50.876;4.736;2023-03-21T14:39:04;18.10;99.90
8820;DHT22;4446;50.876;4.736;2023-03-21T14:41:33;17.90;99.90
8820;DHT22;4446;50.876;4.736;2023-03-21T14:44:15;17.80;99.90
8820;DHT22;4446;50.876;4.736;2023-03-21T14:46:42;17.50;99.90
8820;DHT22;4446;50.876;4.736;2023-03-21T14:49:17;17.30;99.90
8820;DHT22;4446;50.876;4.736;2023-03-21T14:51:45;16.90;99.90
8820;DHT22;4446;50.876;4.736;2023-03-21T14:54:14;16.60;99.90
8820;DHT22;4446;50.876;4.736;2023-03-21T14:56:44;16.30;99.90
8820;DHT22;4446;50.876;4.736;2023-03-21T14:59:15;16.10;99.90
8820;DHT22;4446;50.876;4.736;2023-03-21T15:01:45;15.90;99.90
8820;DHT22;4446;50.876;4.736;2023-03-21T15:04:14;15.60;99.90
8820;DHT22;4446;50.876;4.736;2023-03-21T15:06:54;15.40;99.90
8820;DHT22;4446;50.876;4.736;2023-03-21T15:09:24;15.30;99.90
8820;DHT22;4446;50.876;4.736;2023-03-21T15:11:54;15.30;99.90
8820;DHT22;4446;50.876;4.736;2023-03-21T15:14:28;15.20;99.90
8820;DHT22;4446;50.876;4.736;2023-03-21T15:16:58;15.20;99.90
8820;DHT22;4446;50.876;4.736;2023-03-21T15:19:31;15.10;99.90
8820;DHT22;4446;50.876;4.736;2023-03-21T15:22:07;15.10;99.90
8820;DHT22;4446;50.876;4.736;2023-03-21T15:24:38;15.00;99.90
8820;DHT22;4446;50.876;4.736;2023-03-21T15:27:07;15.00;99.90
8820;DHT22;4446;50.876;4.736;2023-03-21T15:29:39;14.80;99.90
8820;DHT22;4446;50.876;4.736;2023-03-21T15:32:13;14.90;99.90
8820;DHT22;4446;50.876;4.736;2023-03-21T15:34:41;14.90;99.90
8820;DHT22;4446;50.876;4.736;2023-03-21T15:37:15;14.90;99.90
8820;DHT22;4446;50.876;4.736;2023-03-21T15:39:42;15.00;99.90
8820;DHT22;4446;50.876;4.736;2023-03-21T15:42:23;14.80;99.90
8820;DHT22;4446;50.876;4.736;2023-03-21T15:44:55;14.80;99.90
8820;DHT22;4446;50.876;4.736;2023-03-21T15:47:38;14.50;99.90
8820;DHT22;4446;50.876;4.736;2023-03-21T15:50:08;14.50;99.90
8820;DHT22;4446;50.876;4.736;2023-03-21T15:52:36;14.50;99.90
8820;DHT22;4446;50.876;4.736;2023-03-21T15:55:16;14.40;99.90
8820;DHT22;4446;50.876;4.736;2023-03-21T15:57:46;14.20;99.90
8820;DHT22;4446;50.876;4.736;2023-03-21T16:00:22;14.30;99.90
8820;DHT22;4446;50.876;4.736;2023-03-21T16:02:54;14.20;99.90
8820;DHT22;4446;50.876;4.736;2023-03-21T16:05:26;14.20;99.90
8820;DHT22;4446;50.876;4.736;2023-03-21T16:07:58;14.10;99.90
8820;DHT22;4446;50.876;4.736;2023-03-21T16:10:28;14.20;99.90
8820;DHT22;4446;50.876;4.736;2023-03-21T16:12:56;14.20;99.90
8820;DHT22;4446;50.876;4.736;2023-03-21T16:15:25;14.20;99.90
8820;DHT22;4446;50.876;4.736;2023-03-21T16:17:53;14.10;99.90
8820;DHT22;4446;50.876;4.736;2023-03-21T16:20:24;14.10;99.90
8820;DHT22;4446;50.876;4.736;2023-03-21T16:22:52;14.10;99.90
8820;DHT22;4446;50.876;4.736;2023-03-21T16:25:22;14.00;99.90
8820;DHT22;4446;50.876;4.736;2023-03-21T16:27:49;13.80;99.90
8820;DHT22;4446;50.876;4.736;2023-03-21T16:30:18;13.70;99.90